createdAt,value
2022-10-10T05:23:37.990Z,8.20
2022-10-10T05:28:41.788Z,8.10
2022-10-10T05:33:45.306Z,8.40
2022-10-10T05:38:50.383Z,8.50
2022-10-10T05:43:53.715Z,8.60
2022-10-10T05:48:57.526Z,8.70
2022-10-10T05:54:02.589Z,8.70
2022-10-10T05:59:06.150Z,8.90
2022-10-10T06:04:09.540Z,8.90
2022-10-10T06:09:14.248Z,9.00
2022-10-10T06:14:17.897Z,9.10
2022-10-10T06:19:21.398Z,9.10
2022-10-10T06:24:26.102Z,9.10
2022-10-10T06:29:31.085Z,9.20
2022-10-10T06:34:34.537Z,9.30
2022-10-10T06:39:39.476Z,9.40
2022-10-10T06:44:42.876Z,9.50
2022-10-10T06:49:46.263Z,9.60
2022-10-10T06:54:51.443Z,9.70
2022-10-10T06:59:55.075Z,9.70
2022-10-10T07:04:58.417Z,9.80
2022-10-10T07:10:03.354Z,9.90
2022-10-10T07:15:08.085Z,9.90
2022-10-10T07:20:11.519Z,10.00
2022-10-10T07:25:16.402Z,10.10
2022-10-10T07:30:20.131Z,10.20
2022-10-10T07:35:24.277Z,10.30
2022-10-10T07:40:29.110Z,10.40
2022-10-10T07:45:32.536Z,10.50
2022-10-10T07:50:37.415Z,10.60
2022-10-10T07:55:43.319Z,10.70
2022-10-10T08:00:46.640Z,10.80
2022-10-10T08:05:50.685Z,10.90
2022-10-10T08:10:55.395Z,11.00
2022-10-10T08:15:58.847Z,11.10
2022-10-10T08:21:03.026Z,11.30
2022-10-10T08:26:10.399Z,11.40
2022-10-10T08:31:15.651Z,11.40
2022-10-10T08:36:21.250Z,11.60
2022-10-10T08:41:37.963Z,11.70
2022-10-10T08:46:45.449Z,11.90
2022-10-10T08:51:54.134Z,12.00
2022-10-10T08:57:01.957Z,12.10
2022-10-10T09:02:38.237Z,12.20
2022-10-10T09:08:13.419Z,12.40
2022-10-10T09:13:26.951Z,12.50
2022-10-10T09:18:41.481Z,12.70
2022-10-10T09:23:51.095Z,12.80
2022-10-10T09:28:59.909Z,13.00
2022-10-10T09:34:08.113Z,13.10
2022-10-10T09:39:22.263Z,13.30
2022-10-10T09:44:27.446Z,13.40
2022-10-10T09:49:31.261Z,13.70
2022-10-10T09:54:34.590Z,13.90
2022-10-10T09:59:42.024Z,14.10
2022-10-10T10:04:45.896Z,14.40
2022-10-10T10:09:51.211Z,14.60
2022-10-10T10:15:01.423Z,14.80
2022-10-10T10:20:10.726Z,15.00
2022-10-10T10:25:31.714Z,15.20
2022-10-10T10:30:36.778Z,15.30
2022-10-10T10:35:46.305Z,15.50
2022-10-10T10:40:59.193Z,15.60
2022-10-10T10:46:10.888Z,15.80
2022-10-10T10:51:41.353Z,16.00
2022-10-10T10:56:51.853Z,16.30
2022-10-10T11:02:26.221Z,16.40
2022-10-10T11:07:46.590Z,16.60
2022-10-10T11:12:59.983Z,16.70
2022-10-10T11:18:11.616Z,16.80
2022-10-10T11:23:19.841Z,16.90
2022-10-10T11:28:27.593Z,17.20
2022-10-10T11:33:36.022Z,17.30
2022-10-10T11:38:44.803Z,17.50
2022-10-10T11:43:56.492Z,17.70
2022-10-10T11:49:07.781Z,17.90
2022-10-10T11:54:21.861Z,18.10
2022-10-10T11:59:29.503Z,18.30
2022-10-10T12:04:38.085Z,18.50
2022-10-10T12:09:44.646Z,18.60
2022-10-10T12:14:54.168Z,18.80
2022-10-10T12:20:11.270Z,19.00
2022-10-10T12:25:36.305Z,19.20
2022-10-10T12:31:00.804Z,19.40
2022-10-10T12:36:39.700Z,19.60
2022-10-10T12:41:57.093Z,19.60
2022-10-10T12:47:46.297Z,19.60
2022-10-10T12:52:55.784Z,19.70
2022-10-10T12:58:04.149Z,19.70
2022-10-10T13:03:13.990Z,19.80
2022-10-10T13:08:20.360Z,19.80
2022-10-10T13:13:25.071Z,19.80
2022-10-10T13:18:39.247Z,19.80
2022-10-10T13:29:20.838Z,19.80
2022-10-10T13:34:27.602Z,19.80
2022-10-10T13:39:35.645Z,19.80
2022-10-10T13:44:52.039Z,19.90
2022-10-10T13:49:56.361Z,20.00
2022-10-10T13:55:16.380Z,20.00
2022-10-10T14:00:23.732Z,19.90
2022-10-10T14:05:31.477Z,19.90
2022-10-10T14:10:37.131Z,19.90
2022-10-10T14:15:48.318Z,20.00
2022-10-10T14:20:53.422Z,20.00
2022-10-10T14:25:58.653Z,20.00
2022-10-10T14:31:04.447Z,20.10
2022-10-10T14:36:08.812Z,20.10
2022-10-10T14:41:14.108Z,20.00
2022-10-10T14:46:20.414Z,19.90
2022-10-10T14:51:34.158Z,19.80
2022-10-10T14:57:06.569Z,19.70
2022-10-10T15:02:06.426Z,19.70
2022-10-10T15:07:13.763Z,19.60
2022-10-10T15:12:18.662Z,19.50
2022-10-10T15:17:24.434Z,19.40
2022-10-10T15:22:29.376Z,19.30
2022-10-10T15:27:33.318Z,19.20
2022-10-10T15:32:40.778Z,19.20
2022-10-10T15:37:44.733Z,19.10
2022-10-10T15:42:49.566Z,19.10
2022-10-10T15:47:54.242Z,19.00
2022-10-10T15:52:57.597Z,18.90
2022-10-10T15:58:03.420Z,18.80
2022-10-10T16:03:08.422Z,18.80
2022-10-10T16:08:12.432Z,18.80
2022-10-10T16:13:16.010Z,18.70
2022-10-10T16:18:20.726Z,18.60
2022-10-10T16:23:24.325Z,18.50
2022-10-10T16:28:27.725Z,18.40
2022-10-10T16:33:34.242Z,18.30
2022-10-10T16:38:37.803Z,18.20
2022-10-10T16:43:43.254Z,18.10
2022-10-10T16:48:50.053Z,18.00
2022-10-10T16:53:53.399Z,17.90
2022-10-10T16:58:57.027Z,17.90
2022-10-10T17:04:03.271Z,17.80
2022-10-10T17:09:08.193Z,17.70
2022-10-10T17:14:11.477Z,17.70
2022-10-10T17:19:16.151Z,17.60
2022-10-10T17:24:19.504Z,17.60
2022-10-10T17:29:23.759Z,17.50
2022-10-10T17:34:28.509Z,17.40
2022-10-10T17:39:32.080Z,17.40
2022-10-10T17:44:41.977Z,17.40
2022-10-10T17:49:49.502Z,17.30
2022-10-10T17:54:52.858Z,17.20
2022-10-10T17:59:56.228Z,17.20
2022-10-10T18:05:01.002Z,17.10
2022-10-10T18:10:05.270Z,17.10
2022-10-10T18:15:09.900Z,17.10
2022-10-10T18:20:17.273Z,17.00
2022-10-10T18:25:25.053Z,17.00
2022-10-10T18:30:29.926Z,16.90
2022-10-10T18:35:35.484Z,16.80
2022-10-10T18:40:39.048Z,16.80
2022-10-10T18:45:42.693Z,16.80
2022-10-10T18:50:47.727Z,16.70
2022-10-10T18:55:56.755Z,16.70
2022-10-10T19:01:03.505Z,16.70
2022-10-10T19:06:10.656Z,16.60
2022-10-10T19:11:21.253Z,16.60
2022-10-10T19:16:24.730Z,16.50
2022-10-10T19:21:31.462Z,16.50
2022-10-10T19:26:35.889Z,16.40
2022-10-10T19:31:39.582Z,16.40
2022-10-10T19:36:44.958Z,16.40
2022-10-10T19:41:48.510Z,16.40
2022-10-10T19:46:51.882Z,16.40
2022-10-10T19:51:56.543Z,16.30
2022-10-10T19:57:00.044Z,16.30
2022-10-10T20:02:03.679Z,16.30
2022-10-10T20:07:08.602Z,16.30
2022-10-10T20:12:11.968Z,16.30
2022-10-10T20:17:15.320Z,16.20
2022-10-10T20:22:20.359Z,16.20
2022-10-10T20:27:25.717Z,16.20
2022-10-10T20:32:32.240Z,16.10
2022-10-10T20:37:37.021Z,16.10
2022-10-10T20:42:40.637Z,16.10
2022-10-10T20:47:44.113Z,16.10
2022-10-10T20:52:48.975Z,16.10
2022-10-10T20:57:52.343Z,16.10
2022-10-10T21:02:56.186Z,16.10
2022-10-10T21:08:01.734Z,16.00
2022-10-10T21:13:05.085Z,16.00
2022-10-10T21:18:08.982Z,16.00
2022-10-10T21:23:13.638Z,15.90
2022-10-10T21:28:17.228Z,16.00
2022-10-10T21:33:22.447Z,15.90
2022-10-10T21:38:27.644Z,15.90
2022-10-10T21:43:31.464Z,15.80
2022-10-10T21:48:34.957Z,15.80
2022-10-10T21:53:40.164Z,15.80
2022-10-10T21:58:46.176Z,15.80
2022-10-10T22:03:51.150Z,15.70
2022-10-10T22:08:58.178Z,15.70
2022-10-10T22:14:03.260Z,15.80
2022-10-10T22:19:07.639Z,15.80
2022-10-10T22:24:12.517Z,15.80
2022-10-10T22:29:15.857Z,15.80
2022-10-10T22:34:19.219Z,15.80
2022-10-10T22:39:23.933Z,15.80
2022-10-10T22:44:27.443Z,15.80
2022-10-10T22:49:33.611Z,15.80
2022-10-10T22:54:38.611Z,15.80
2022-10-10T22:59:41.932Z,15.80
2022-10-10T23:04:45.274Z,15.90
2022-10-10T23:09:50.045Z,15.90
2022-10-10T23:14:53.437Z,15.90
2022-10-10T23:19:57.201Z,15.90
2022-10-10T23:25:01.867Z,15.90
2022-10-10T23:30:06.007Z,15.90
2022-10-10T23:35:10.544Z,15.90
2022-10-10T23:40:15.549Z,15.90
2022-10-10T23:45:19.397Z,15.80
2022-10-10T23:50:22.732Z,15.80
2022-10-10T23:55:27.732Z,15.80
